createdAt,value
2018-06-20T00:02:15.381Z,100690.00
2018-06-20T00:04:45.853Z,100692.00
2018-06-20T00:07:16.608Z,100684.00
2018-06-20T00:09:47.603Z,100676.00
2018-06-20T00:12:17.785Z,100676.00
2018-06-20T00:14:48.233Z,100673.00
2018-06-20T00:17:18.366Z,100682.00
2018-06-20T00:19:48.396Z,100676.00
2018-06-20T00:22:18.930Z,100669.00
2018-06-20T00:24:50.241Z,100672.00
2018-06-20T00:27:20.725Z,100663.00
2018-06-20T00:29:50.875Z,100664.00
2018-06-20T00:32:21.204Z,100653.00
2018-06-20T00:34:51.678Z,100657.00
2018-06-20T00:37:21.935Z,100658.00
2018-06-20T00:39:52.203Z,100661.00
2018-06-20T00:42:22.311Z,100659.00
2018-06-20T00:44:52.617Z,100647.00
2018-06-20T00:47:23.163Z,100639.00
2018-06-20T00:49:53.201Z,100635.00
2018-06-20T00:52:23.594Z,100642.00
2018-06-20T00:54:54.224Z,100634.00
2018-06-20T00:57:24.249Z,100625.00
2018-06-20T00:59:54.424Z,100618.00
2018-06-20T01:02:24.874Z,100627.00
2018-06-20T01:04:55.323Z,100616.00
2018-06-20T01:07:26.510Z,100617.00
2018-06-20T01:09:57.574Z,100611.00
2018-06-20T01:12:28.693Z,100615.00
2018-06-20T01:15:00.200Z,100605.00
2018-06-20T01:17:30.649Z,100602.00
2018-06-20T01:20:01.039Z,100605.00
2018-06-20T01:22:31.026Z,100598.00
2018-06-20T01:25:01.972Z,100589.00
2018-06-20T01:27:33.021Z,100602.00
2018-06-20T01:30:04.706Z,100607.00
2018-06-20T01:32:36.321Z,100606.00
2018-06-20T01:35:10.359Z,100591.00
2018-06-20T01:37:40.581Z,100582.00
2018-06-20T01:40:11.493Z,100581.00
2018-06-20T01:42:43.320Z,100574.00
2018-06-20T01:45:14.552Z,100588.00
2018-06-20T01:47:44.697Z,100580.00
2018-06-20T01:50:17.360Z,100588.00
2018-06-20T01:52:49.116Z,100575.00
2018-06-20T01:55:19.989Z,100578.00
2018-06-20T01:57:50.623Z,100589.00
2018-06-20T02:00:21.860Z,100587.00
2018-06-20T02:02:53.370Z,100586.00
2018-06-20T02:05:24.834Z,100571.00
2018-06-20T02:07:55.553Z,100569.00
2018-06-20T02:10:26.812Z,100572.00
2018-06-20T02:12:58.012Z,100580.00
2018-06-20T02:15:28.295Z,100582.00
2018-06-20T02:17:58.390Z,100569.00
2018-06-20T02:20:28.946Z,100572.00
2018-06-20T02:22:59.141Z,100567.00
2018-06-20T02:25:29.568Z,100562.00
2018-06-20T02:28:00.032Z,100566.00
2018-06-20T02:30:30.480Z,100566.00
2018-06-20T02:33:00.579Z,100563.00
2018-06-20T02:35:31.925Z,100571.00
2018-06-20T02:38:02.045Z,100562.00
2018-06-20T02:40:32.287Z,100566.00
2018-06-20T02:43:02.351Z,100564.00
2018-06-20T02:45:35.470Z,100567.00
2018-06-20T02:48:05.681Z,100558.00
2018-06-20T02:50:35.985Z,100559.00
2018-06-20T02:53:06.192Z,100552.00
2018-06-20T02:55:36.262Z,100553.00
2018-06-20T02:58:06.609Z,100560.00
2018-06-20T03:00:37.423Z,100564.00
2018-06-20T03:03:07.690Z,100556.00
2018-06-20T03:05:37.899Z,100555.00
2018-06-20T03:08:08.235Z,100560.00
2018-06-20T03:10:38.248Z,100558.00
2018-06-20T03:13:09.192Z,100557.00
2018-06-20T03:15:39.270Z,100560.00
2018-06-20T03:18:09.610Z,100555.00
2018-06-20T03:20:39.817Z,100549.00
2018-06-20T03:23:10.034Z,100562.00
2018-06-20T03:25:40.392Z,100548.00
2018-06-20T03:28:10.531Z,100557.00
2018-06-20T03:30:40.606Z,100561.00
2018-06-20T03:33:11.386Z,100565.00
2018-06-20T03:35:42.274Z,100559.00
2018-06-20T03:38:12.572Z,100556.00
2018-06-20T03:40:42.911Z,100551.00
2018-06-20T03:43:13.063Z,100553.00
2018-06-20T03:45:43.459Z,100551.00
2018-06-20T03:48:13.553Z,100561.00
2018-06-20T03:50:43.773Z,100545.00
2018-06-20T03:53:13.976Z,100548.00
2018-06-20T03:55:44.189Z,100536.00
2018-06-20T03:58:14.381Z,100536.00
2018-06-20T04:00:44.639Z,100531.00
2018-06-20T04:03:15.094Z,100530.00
2018-06-20T04:05:45.343Z,100534.00
2018-06-20T04:08:15.770Z,100534.00
2018-06-20T04:10:45.872Z,100530.00
2018-06-20T04:13:16.063Z,100530.00
2018-06-20T04:15:46.204Z,100524.00
2018-06-20T04:18:16.654Z,100525.00
2018-06-20T04:20:46.647Z,100532.00
2018-06-20T04:23:16.949Z,100530.00
2018-06-20T04:25:47.610Z,100524.00
2018-06-20T04:28:17.937Z,100524.00
2018-06-20T04:30:48.482Z,100521.00
2018-06-20T04:33:19.320Z,100522.00
2018-06-20T04:35:49.680Z,100519.00
2018-06-20T04:38:19.746Z,100513.00
2018-06-20T04:40:50.039Z,100512.00
2018-06-20T04:43:20.707Z,100499.00
2018-06-20T04:45:51.257Z,100499.00
2018-06-20T04:48:23.733Z,100496.00
2018-06-20T04:50:54.378Z,100493.00
2018-06-20T04:53:25.613Z,100477.00
2018-06-20T04:55:55.714Z,100486.00
2018-06-20T04:58:26.017Z,100483.00
2018-06-20T05:00:56.081Z,100476.00
2018-06-20T05:03:26.790Z,100479.00
2018-06-20T05:05:56.896Z,100479.00
2018-06-20T05:08:27.668Z,100482.00
2018-06-20T05:10:57.872Z,100471.00
2018-06-20T05:13:28.213Z,100478.00
2018-06-20T05:15:58.648Z,100471.00
2018-06-20T05:18:28.889Z,100468.00
2018-06-20T05:20:59.656Z,100470.00
2018-06-20T05:23:30.556Z,100480.00
2018-06-20T05:26:00.775Z,100481.00
2018-06-20T05:28:31.769Z,100468.00
2018-06-20T05:31:01.859Z,100474.00
2018-06-20T05:33:32.521Z,100472.00
2018-06-20T05:36:02.482Z,100483.00
2018-06-20T05:38:32.693Z,100479.00
2018-06-20T05:41:03.287Z,100476.00
2018-06-20T05:43:33.735Z,100484.00
2018-06-20T05:46:03.702Z,100477.00
2018-06-20T05:48:34.118Z,100478.00
2018-06-20T05:51:04.171Z,100477.00
2018-06-20T05:53:34.726Z,100490.00
2018-06-20T05:56:05.310Z,100490.00
2018-06-20T05:58:35.534Z,100482.00
2018-06-20T06:01:05.782Z,100486.00
2018-06-20T06:03:36.041Z,100485.00
2018-06-20T06:06:12.313Z,100487.00
2018-06-20T06:08:42.972Z,100481.00
2018-06-20T06:11:13.557Z,100476.00
2018-06-20T06:13:44.088Z,100481.00
2018-06-20T06:16:14.638Z,100481.00
2018-06-20T06:18:44.853Z,100476.00
2018-06-20T06:21:15.215Z,100481.00
2018-06-20T06:23:46.177Z,100475.00
2018-06-20T06:26:16.194Z,100469.00
2018-06-20T06:28:46.602Z,100468.00
2018-06-20T06:31:16.745Z,100465.00
2018-06-20T06:33:46.871Z,100460.00
2018-06-20T06:36:17.311Z,100459.00
2018-06-20T06:38:47.344Z,100452.00
2018-06-20T06:41:17.766Z,100453.00
2018-06-20T06:43:48.438Z,100458.00
2018-06-20T06:46:18.687Z,100468.00
2018-06-20T06:48:48.806Z,100455.00
2018-06-20T06:51:19.062Z,100450.00
2018-06-20T06:53:49.564Z,100468.00
2018-06-20T06:56:19.883Z,100453.00
2018-06-20T06:58:50.298Z,100458.00
2018-06-20T07:01:21.042Z,100454.00
2018-06-20T07:03:51.401Z,100449.00
2018-06-20T07:06:21.773Z,100453.00
2018-06-20T07:08:52.053Z,100461.00
2018-06-20T07:11:22.684Z,100469.00
2018-06-20T07:13:53.050Z,100458.00
2018-06-20T07:16:23.669Z,100457.00
2018-06-20T07:18:55.044Z,100464.00
2018-06-20T07:21:25.394Z,100473.00
2018-06-20T07:23:56.403Z,100473.00
2018-06-20T07:26:26.442Z,100467.00
2018-06-20T07:28:56.669Z,100470.00
2018-06-20T07:31:27.172Z,100473.00
2018-06-20T07:33:57.500Z,100465.00
2018-06-20T07:36:27.713Z,100472.00
2018-06-20T07:38:57.963Z,100471.00
2018-06-20T07:41:28.167Z,100475.00
2018-06-20T07:43:58.342Z,100480.00
2018-06-20T07:46:28.893Z,100489.00
2018-06-20T07:48:59.104Z,100481.00
2018-06-20T07:51:29.521Z,100491.00
2018-06-20T07:53:59.845Z,100499.00
2018-06-20T07:56:30.048Z,100496.00
2018-06-20T07:59:00.254Z,100488.00
2018-06-20T08:03:58.168Z,100499.00
2018-06-20T08:06:33.590Z,100496.00
2018-06-20T08:09:09.089Z,100483.00
2018-06-20T08:11:44.341Z,100483.00
2018-06-20T08:14:19.559Z,100486.00
2018-06-20T08:16:54.627Z,100460.00
2018-06-20T08:19:30.426Z,100469.00
2018-06-20T08:22:00.602Z,100473.00
2018-06-20T08:24:30.951Z,100459.00
2018-06-20T08:27:01.210Z,100469.00
2018-06-20T08:29:31.756Z,100470.00
2018-06-20T08:32:02.252Z,100474.00
2018-06-20T08:34:32.970Z,100475.00
2018-06-20T08:37:03.422Z,100473.00
2018-06-20T08:39:33.894Z,100467.00
2018-06-20T08:42:04.170Z,100466.00
2018-06-20T08:44:34.354Z,100465.00
2018-06-20T08:47:04.839Z,100465.00
2018-06-20T08:49:35.360Z,100468.00
2018-06-20T08:52:05.695Z,100463.00
2018-06-20T08:54:36.484Z,100461.00
2018-06-20T08:57:07.226Z,100452.00
2018-06-20T08:59:37.443Z,100448.00
2018-06-20T09:02:08.251Z,100451.00
2018-06-20T09:04:44.517Z,100463.00
2018-06-20T09:07:19.705Z,100476.00
2018-06-20T09:09:55.042Z,100474.00
2018-06-20T09:12:30.796Z,100464.00
2018-06-20T09:15:06.034Z,100470.00
2018-06-20T09:17:41.316Z,100462.00
2018-06-20T09:20:11.234Z,100469.00
2018-06-20T09:22:41.692Z,100461.00
2018-06-20T09:25:12.119Z,100451.00
2018-06-20T09:27:42.583Z,100459.00
2018-06-20T09:30:12.960Z,100457.00
2018-06-20T09:32:43.252Z,100465.00
2018-06-20T09:35:13.642Z,100459.00
2018-06-20T09:37:43.905Z,100457.00
2018-06-20T09:40:14.282Z,100417.00
2018-06-20T09:42:44.717Z,100463.00
2018-06-20T09:45:14.896Z,100464.00
2018-06-20T09:47:45.269Z,100465.00
2018-06-20T09:50:20.633Z,100446.00
2018-06-20T09:52:51.159Z,100467.00
2018-06-20T09:55:21.406Z,100456.00
2018-06-20T09:57:52.054Z,100460.00
2018-06-20T10:00:27.857Z,100470.00
2018-06-20T10:03:03.437Z,100468.00
2018-06-20T10:05:39.238Z,100455.00
2018-06-20T10:08:14.330Z,100464.00
2018-06-20T10:10:47.182Z,100462.00
2018-06-20T10:13:18.741Z,100457.00
2018-06-20T10:15:49.389Z,100449.00
2018-06-20T10:18:20.454Z,100466.00
2018-06-20T10:20:57.069Z,100452.00
2018-06-20T10:23:27.404Z,100469.00
2018-06-20T10:26:04.260Z,100456.00
2018-06-20T10:28:34.568Z,100453.00
2018-06-20T10:31:05.129Z,100469.00
2018-06-20T10:33:36.013Z,100458.00
2018-06-20T10:36:06.431Z,100472.00
2018-06-20T10:38:37.049Z,100475.00
2018-06-20T10:41:07.069Z,100470.00
2018-06-20T10:43:37.206Z,100471.00
2018-06-20T10:46:12.639Z,100477.00
2018-06-20T10:48:42.982Z,100477.00
2018-06-20T10:51:13.978Z,100487.00
2018-06-20T10:53:44.545Z,100490.00
2018-06-20T10:56:20.175Z,100483.00
2018-06-20T10:58:55.885Z,100480.00
2018-06-20T11:01:30.978Z,100486.00
2018-06-20T11:04:06.413Z,100479.00
2018-06-20T11:06:41.708Z,100477.00
2018-06-20T11:09:17.989Z,100476.00
2018-06-20T11:11:53.345Z,100480.00
2018-06-20T11:14:23.114Z,100481.00
2018-06-20T11:16:54.166Z,100487.00
2018-06-20T11:19:25.227Z,100489.00
2018-06-20T11:21:55.364Z,100486.00
2018-06-20T11:24:25.995Z,100483.00
2018-06-20T11:26:56.731Z,100476.00
2018-06-20T11:29:27.739Z,100476.00
2018-06-20T11:31:57.947Z,100483.00
2018-06-20T11:34:28.209Z,100479.00
2018-06-20T11:36:58.775Z,100474.00
2018-06-20T11:39:29.329Z,100479.00
2018-06-20T11:41:59.617Z,100477.00
2018-06-20T11:44:29.882Z,100476.00
2018-06-20T11:47:05.126Z,100476.00
2018-06-20T11:49:35.105Z,100484.00
2018-06-20T11:52:09.515Z,100475.00
2018-06-20T11:54:39.598Z,100479.00
2018-06-20T11:57:10.074Z,100480.00
2018-06-20T11:59:45.513Z,100476.00
2018-06-20T12:02:21.191Z,100480.00
2018-06-20T12:04:56.814Z,100487.00
2018-06-20T12:07:31.995Z,100474.00
2018-06-20T12:10:07.132Z,100469.00
2018-06-20T12:14:45.048Z,100471.00
2018-06-20T12:17:20.833Z,100465.00
2018-06-20T12:19:56.981Z,100459.00
2018-06-20T12:22:32.195Z,100452.00
2018-06-20T12:25:07.740Z,100454.00
2018-06-20T12:27:43.059Z,100450.00
2018-06-20T12:30:18.328Z,100457.00
2018-06-20T12:32:54.042Z,100443.00
2018-06-20T12:42:44.460Z,100454.00
2018-06-20T12:45:17.685Z,100441.00
2018-06-20T12:47:50.028Z,100446.00
2018-06-20T12:50:23.937Z,100440.00
2018-06-20T12:52:54.619Z,100445.00
2018-06-20T12:55:25.971Z,100445.00
2018-06-20T12:57:57.081Z,100428.00
2018-06-20T13:00:27.420Z,100437.00
2018-06-20T13:02:57.767Z,100435.00
2018-06-20T13:05:28.421Z,100432.00
2018-06-20T13:07:58.537Z,100429.00
2018-06-20T13:10:28.688Z,100429.00
2018-06-20T13:12:58.862Z,100421.00
2018-06-20T13:15:29.044Z,100408.00
2018-06-20T13:17:59.610Z,100431.00
2018-06-20T13:20:29.779Z,100407.00
2018-06-20T13:23:00.133Z,100425.00
2018-06-20T13:25:30.426Z,100407.00
2018-06-20T13:28:01.022Z,100421.00
2018-06-20T13:30:32.238Z,100421.00
2018-06-20T13:33:07.681Z,100401.00
2018-06-20T13:35:42.964Z,100396.00
2018-06-20T13:38:18.358Z,100412.00
2018-06-20T13:40:54.216Z,100405.00
2018-06-20T13:43:29.694Z,100404.00
2018-06-20T13:46:05.029Z,100409.00
2018-06-20T13:48:36.193Z,100397.00
2018-06-20T13:51:06.334Z,100401.00
2018-06-20T13:53:36.808Z,100402.00
2018-06-20T13:56:07.747Z,100409.00
2018-06-20T13:58:38.104Z,100405.00
2018-06-20T14:01:08.154Z,100417.00
2018-06-20T14:03:38.483Z,100407.00
2018-06-20T14:06:08.618Z,100399.00
2018-06-20T14:08:38.959Z,100423.00
2018-06-20T14:11:09.117Z,100421.00
2018-06-20T14:13:39.660Z,100433.00
2018-06-20T14:16:10.430Z,100435.00
2018-06-20T14:18:40.841Z,100449.00
2018-06-20T14:21:16.155Z,100447.00
2018-06-20T14:23:46.978Z,100444.00
2018-06-20T14:26:17.679Z,100406.00
2018-06-20T14:28:48.441Z,100410.00
2018-06-20T14:31:23.450Z,100399.00
2018-06-20T14:33:59.229Z,100407.00
2018-06-20T14:36:34.283Z,100416.00
2018-06-20T14:39:12.113Z,100411.00
2018-06-20T14:41:47.913Z,100440.00
2018-06-20T14:44:18.176Z,100456.00
2018-06-20T14:46:48.289Z,100444.00
2018-06-20T14:49:18.555Z,100471.00
2018-06-20T14:51:49.001Z,100458.00
2018-06-20T14:54:19.302Z,100472.00
2018-06-20T14:56:50.085Z,100452.00
2018-06-20T14:59:20.201Z,100457.00
2018-06-20T15:01:50.541Z,100458.00
2018-06-20T15:04:20.951Z,100425.00
2018-06-20T15:06:51.704Z,100457.00
2018-06-20T15:09:22.245Z,100465.00
2018-06-20T15:11:52.554Z,100448.00
2018-06-20T15:14:22.729Z,100432.00
2018-06-20T15:16:58.094Z,100476.00
2018-06-20T15:19:28.872Z,100478.00
2018-06-20T15:21:59.145Z,100487.00
2018-06-20T15:24:30.959Z,100473.00
2018-06-20T15:27:06.186Z,100478.00
2018-06-20T15:29:41.744Z,100482.00
2018-06-20T15:32:17.158Z,100492.00
2018-06-20T15:36:59.945Z,100496.00
2018-06-20T15:39:30.022Z,100479.00
2018-06-20T15:42:00.928Z,100492.00
2018-06-20T15:44:32.034Z,100517.00
2018-06-20T15:47:05.351Z,100484.00
2018-06-20T15:49:37.705Z,100497.00
2018-06-20T15:52:08.177Z,100496.00
2018-06-20T15:54:38.962Z,100499.00
2018-06-20T15:57:09.396Z,100494.00
2018-06-20T15:59:40.232Z,100497.00
2018-06-20T16:02:10.585Z,100503.00
2018-06-20T16:04:40.566Z,100509.00
2018-06-20T16:07:10.947Z,100511.00
2018-06-20T16:09:46.896Z,100513.00
2018-06-20T16:12:17.827Z,100509.00
2018-06-20T16:14:47.891Z,100516.00
2018-06-20T16:17:19.345Z,100516.00
2018-06-20T16:20:58.892Z,100529.00
2018-06-20T16:23:34.625Z,100506.00
2018-06-20T16:26:09.864Z,100535.00
2018-06-20T16:28:45.479Z,100522.00
2018-06-20T16:31:15.980Z,100528.00
2018-06-20T16:33:47.181Z,100535.00
2018-06-20T16:36:17.552Z,100536.00
2018-06-20T16:38:47.814Z,100537.00
2018-06-20T16:41:18.403Z,100532.00
2018-06-20T16:43:48.683Z,100529.00
2018-06-20T16:46:18.726Z,100526.00
2018-06-20T16:48:49.240Z,100525.00
2018-06-20T16:51:19.763Z,100524.00
2018-06-20T16:53:50.011Z,100529.00
2018-06-20T16:56:20.610Z,100520.00
2018-06-20T16:58:50.818Z,100519.00
2018-06-20T17:01:26.206Z,100536.00
2018-06-20T17:03:56.585Z,100544.00
2018-06-20T17:06:27.084Z,100538.00
2018-06-20T17:08:57.978Z,100532.00
2018-06-20T17:11:29.002Z,100529.00
2018-06-20T17:14:04.581Z,100534.00
2018-06-20T17:16:39.641Z,100553.00
2018-06-20T17:19:14.892Z,100556.00
2018-06-20T17:21:51.531Z,100540.00
2018-06-20T17:24:26.969Z,100543.00
2018-06-20T17:26:57.560Z,100547.00
2018-06-20T17:29:29.135Z,100556.00
2018-06-20T17:32:00.623Z,100555.00
2018-06-20T17:34:30.942Z,100583.00
2018-06-20T17:37:01.292Z,100586.00
2018-06-20T17:39:32.085Z,100587.00
2018-06-20T17:42:02.634Z,100573.00
2018-06-20T17:44:33.226Z,100581.00
2018-06-20T17:47:03.572Z,100581.00
2018-06-20T17:49:34.320Z,100590.00
2018-06-20T17:52:05.848Z,100578.00
2018-06-20T17:54:35.947Z,100578.00
2018-06-20T17:57:06.689Z,100600.00
2018-06-20T17:59:37.942Z,100596.00
2018-06-20T18:02:09.684Z,100606.00
2018-06-20T18:04:45.546Z,100578.00
2018-06-20T18:07:21.771Z,100603.00
2018-06-20T18:09:58.160Z,100592.00
2018-06-20T18:13:04.641Z,100602.00
2018-06-20T18:15:40.058Z,100617.00
2018-06-20T18:18:10.521Z,100609.00
2018-06-20T18:20:40.808Z,100606.00
2018-06-20T18:23:12.184Z,100613.00
2018-06-20T18:25:45.074Z,100616.00
2018-06-20T18:28:16.416Z,100610.00
2018-06-20T18:30:48.566Z,100628.00
2018-06-20T18:33:19.965Z,100610.00
2018-06-20T18:35:50.929Z,100619.00
2018-06-20T18:38:22.411Z,100622.00
2018-06-20T18:40:53.625Z,100632.00
2018-06-20T18:43:25.310Z,100621.00
2018-06-20T18:45:58.458Z,100616.00
2018-06-20T18:48:29.391Z,100616.00
2018-06-20T18:51:01.274Z,100621.00
2018-06-20T18:53:31.931Z,100622.00
2018-06-20T18:56:02.682Z,100625.00
2018-06-20T18:58:38.858Z,100627.00
2018-06-20T19:01:14.280Z,100625.00
2018-06-20T19:03:50.234Z,100627.00
2018-06-20T19:06:26.175Z,100627.00
2018-06-20T19:08:59.212Z,100616.00
2018-06-20T19:11:30.734Z,100615.00
2018-06-20T19:14:01.652Z,100620.00
2018-06-20T19:16:33.459Z,100624.00
2018-06-20T19:19:10.502Z,100665.00
2018-06-20T19:21:41.796Z,100636.00
2018-06-20T19:24:12.430Z,100641.00
2018-06-20T19:26:45.902Z,100621.00
2018-06-20T19:29:17.174Z,100627.00
2018-06-20T19:31:47.756Z,100631.00
2018-06-20T19:34:18.545Z,100632.00
2018-06-20T19:36:52.009Z,100621.00
2018-06-20T19:39:27.850Z,100628.00
2018-06-20T19:42:03.285Z,100633.00
2018-06-20T19:44:41.964Z,100627.00
2018-06-20T19:47:12.644Z,100636.00
2018-06-20T19:49:43.846Z,100638.00
2018-06-20T19:52:14.412Z,100637.00
2018-06-20T19:54:44.515Z,100638.00
2018-06-20T19:57:15.803Z,100630.00
2018-06-20T19:59:46.268Z,100648.00
2018-06-20T20:02:17.928Z,100639.00
2018-06-20T20:04:48.695Z,100647.00
2018-06-20T20:07:19.977Z,100637.00
2018-06-20T20:09:50.301Z,100643.00
2018-06-20T20:12:22.405Z,100640.00
2018-06-20T20:14:53.692Z,100651.00
2018-06-20T20:17:24.653Z,100654.00
2018-06-20T20:19:56.956Z,100669.00
2018-06-20T20:22:28.370Z,100671.00
2018-06-20T20:24:58.932Z,100669.00
2018-06-20T20:27:31.809Z,100686.00
2018-06-20T20:30:03.218Z,100692.00
2018-06-20T20:32:34.291Z,100698.00
2018-06-20T20:35:05.472Z,100704.00
2018-06-20T20:37:37.341Z,100707.00
2018-06-20T20:40:08.596Z,100704.00
2018-06-20T20:42:38.305Z,100706.00
2018-06-20T20:45:09.419Z,100707.00
2018-06-20T20:47:43.478Z,100701.00
2018-06-20T20:50:14.956Z,100719.00
2018-06-20T20:52:46.337Z,100714.00
2018-06-20T20:55:17.066Z,100713.00
2018-06-20T20:57:48.685Z,100715.00
2018-06-20T21:00:19.481Z,100720.00
2018-06-20T21:02:51.318Z,100721.00
2018-06-20T21:05:23.282Z,100727.00
2018-06-20T21:07:54.754Z,100727.00
2018-06-20T21:10:25.467Z,100731.00
2018-06-20T21:12:56.321Z,100723.00
2018-06-20T21:15:26.812Z,100723.00
2018-06-20T21:17:57.230Z,100720.00
2018-06-20T21:20:29.920Z,100722.00
2018-06-20T21:23:02.224Z,100730.00
2018-06-20T21:25:33.485Z,100732.00
2018-06-20T21:28:03.965Z,100730.00
2018-06-20T21:30:34.188Z,100733.00
2018-06-20T21:33:04.327Z,100734.00
2018-06-20T21:35:34.543Z,100737.00
2018-06-20T21:38:05.841Z,100737.00
2018-06-20T21:40:35.977Z,100745.00
2018-06-20T21:43:07.057Z,100742.00
2018-06-20T21:45:37.782Z,100750.00
2018-06-20T21:48:11.343Z,100747.00
2018-06-20T21:50:42.878Z,100755.00
2018-06-20T21:53:13.455Z,100753.00
2018-06-20T21:55:44.081Z,100756.00
2018-06-20T21:58:14.177Z,100773.00
2018-06-20T22:00:44.661Z,100770.00
2018-06-20T22:03:14.829Z,100771.00
2018-06-20T22:05:44.818Z,100766.00
2018-06-20T22:08:14.959Z,100767.00
2018-06-20T22:10:45.114Z,100773.00
2018-06-20T22:13:15.654Z,100775.00
2018-06-20T22:15:46.118Z,100773.00
2018-06-20T22:18:16.641Z,100779.00
2018-06-20T22:20:46.970Z,100791.00
2018-06-20T22:23:17.586Z,100786.00
2018-06-20T22:25:48.538Z,100788.00
2018-06-20T22:28:18.669Z,100788.00
2018-06-20T22:30:48.955Z,100791.00
2018-06-20T22:33:19.716Z,100786.00
2018-06-20T22:35:49.911Z,100784.00
2018-06-20T22:38:20.154Z,100788.00
2018-06-20T22:40:50.734Z,100784.00
2018-06-20T22:43:20.990Z,100784.00
2018-06-20T22:45:51.442Z,100784.00
2018-06-20T22:48:21.833Z,100788.00
2018-06-20T22:50:52.117Z,100787.00
2018-06-20T22:53:22.253Z,100781.00
2018-06-20T22:55:52.663Z,100778.00
2018-06-20T22:58:23.932Z,100775.00
2018-06-20T23:00:53.931Z,100779.00
2018-06-20T23:03:24.068Z,100790.00
2018-06-20T23:05:54.447Z,100787.00
2018-06-20T23:08:24.824Z,100795.00
2018-06-20T23:10:56.423Z,100795.00
2018-06-20T23:13:26.677Z,100794.00
2018-06-20T23:15:57.071Z,100792.00
2018-06-20T23:18:27.683Z,100786.00
2018-06-20T23:20:58.288Z,100799.00
2018-06-20T23:23:28.606Z,100800.00
2018-06-20T23:25:59.255Z,100805.00
2018-06-20T23:28:29.668Z,100791.00
2018-06-20T23:30:59.902Z,100789.00
2018-06-20T23:33:30.391Z,100798.00
2018-06-20T23:36:01.921Z,100797.00
2018-06-20T23:38:32.336Z,100804.00
2018-06-20T23:41:03.258Z,100804.00
2018-06-20T23:43:33.520Z,100791.00
2018-06-20T23:46:03.602Z,100796.00
2018-06-20T23:48:34.033Z,100800.00
2018-06-20T23:51:04.742Z,100796.00
2018-06-20T23:53:34.885Z,100803.00
2018-06-20T23:56:05.233Z,100809.00
2018-06-20T23:58:35.046Z,100815.00
